createdAt,value
2018-11-04T00:00:49.080Z,0
2018-11-04T00:01:59.173Z,0
2018-11-04T00:03:09.064Z,0
2018-11-04T00:04:18.949Z,0
2018-11-04T00:05:28.832Z,0
2018-11-04T00:06:38.737Z,0
2018-11-04T00:07:49.042Z,0
2018-11-04T00:08:58.938Z,0
2018-11-04T00:10:09.098Z,0
2018-11-04T00:11:18.157Z,0
2018-11-04T00:12:27.812Z,0
2018-11-04T00:13:37.707Z,0
2018-11-04T00:14:47.357Z,0
2018-11-04T00:15:56.973Z,0
2018-11-04T00:17:06.854Z,0
2018-11-04T00:18:16.738Z,0
2018-11-04T00:19:26.351Z,0
2018-11-04T00:20:36.549Z,0
2018-11-04T00:21:46.436Z,0
2018-11-04T00:22:56.606Z,0
2018-11-04T00:24:06.869Z,0
2018-11-04T00:25:16.727Z,0
2018-11-04T00:26:26.603Z,0
2018-11-04T00:27:35.714Z,0
2018-11-04T00:28:45.061Z,0
2018-11-04T00:29:55.448Z,0
2018-11-04T00:31:05.700Z,0
2018-11-04T00:32:15.851Z,0
2018-11-04T00:33:26.009Z,0
2018-11-04T00:34:35.360Z,0
2018-11-04T00:35:44.704Z,0
2018-11-04T00:36:54.590Z,0
2018-11-04T00:38:04.469Z,0
2018-11-04T00:39:14.089Z,0
2018-11-04T00:40:23.431Z,0
2018-11-04T00:41:33.637Z,0
2018-11-04T00:42:43.528Z,0
2018-11-04T00:43:53.403Z,0
2018-11-04T00:45:03.605Z,0
2018-11-04T00:46:13.774Z,0
2018-11-04T00:47:23.703Z,0
2018-11-04T00:48:34.331Z,0
2018-11-04T00:49:44.532Z,0
2018-11-04T00:50:54.694Z,0
2018-11-04T00:52:04.327Z,0
2018-11-04T00:53:13.937Z,0
2018-11-04T00:54:24.096Z,0
2018-11-04T00:55:34.252Z,0
2018-11-04T00:56:44.129Z,0
2018-11-04T00:57:54.288Z,0
2018-11-04T00:59:03.634Z,0
2018-11-04T01:00:13.792Z,0
2018-11-04T01:01:23.722Z,0
2018-11-04T01:02:33.576Z,0
2018-11-04T01:03:43.747Z,0
2018-11-04T01:04:53.098Z,0
2018-11-04T01:06:03.264Z,0
2018-11-04T01:07:12.883Z,0
2018-11-04T01:08:22.828Z,0
2018-11-04T01:09:32.439Z,0
2018-11-04T01:10:42.594Z,0
2018-11-04T01:11:52.952Z,0
2018-11-04T01:13:02.826Z,0
2018-11-04T01:14:12.438Z,0
2018-11-04T01:15:22.047Z,0
2018-11-04T01:16:31.714Z,0
2018-11-04T01:17:40.769Z,0
2018-11-04T01:18:50.427Z,0
2018-11-04T01:20:00.308Z,0
2018-11-04T01:21:10.063Z,0
2018-11-04T01:22:19.729Z,0
2018-11-04T01:23:29.622Z,0
2018-11-04T01:24:39.893Z,0
2018-11-04T01:25:49.496Z,0
2018-11-04T01:26:59.382Z,0
2018-11-04T01:28:09.596Z,0
2018-11-04T01:29:19.517Z,0
2018-11-04T01:30:30.269Z,0
2018-11-04T01:31:40.475Z,0
2018-11-04T01:32:50.646Z,0
2018-11-04T01:34:00.308Z,0
2018-11-04T01:35:10.197Z,0
2018-11-04T01:36:19.812Z,0
2018-11-04T01:37:29.692Z,0
2018-11-04T01:38:39.577Z,0
2018-11-04T01:39:49.510Z,0
2018-11-04T01:40:59.444Z,0
2018-11-04T01:42:09.593Z,0
2018-11-04T01:43:18.978Z,0
2018-11-04T01:44:28.861Z,0
2018-11-04T01:45:38.192Z,0
2018-11-04T01:46:47.798Z,0
2018-11-04T01:47:57.674Z,0
2018-11-04T01:49:07.566Z,0
2018-11-04T01:50:17.445Z,0
2018-11-04T01:51:27.326Z,0
2018-11-04T01:52:36.941Z,0
2018-11-04T01:53:46.554Z,0
2018-11-04T01:54:56.447Z,0
2018-11-04T01:56:06.333Z,0
2018-11-04T01:57:16.531Z,0
2018-11-04T01:58:26.688Z,0
2018-11-04T01:59:36.302Z,0
2018-11-04T02:00:46.196Z,0
2018-11-04T02:01:56.367Z,0
2018-11-04T02:03:05.708Z,0
2018-11-04T02:04:15.874Z,0
2018-11-04T02:05:26.036Z,0
2018-11-04T02:06:35.644Z,0
2018-11-04T02:07:45.822Z,0
2018-11-04T02:08:55.433Z,0
2018-11-04T02:10:04.771Z,0
2018-11-04T02:11:14.650Z,0
2018-11-04T02:12:24.798Z,0
2018-11-04T02:13:34.683Z,0
2018-11-04T02:14:44.578Z,0
2018-11-04T02:15:54.463Z,0
2018-11-04T02:17:04.348Z,0
2018-11-04T02:18:13.956Z,0
2018-11-04T02:19:23.846Z,0
2018-11-04T02:20:33.510Z,0
2018-11-04T02:21:43.393Z,0
2018-11-04T02:22:53.551Z,0
2018-11-04T02:24:03.441Z,0
2018-11-04T02:25:13.606Z,0
2018-11-04T02:26:23.541Z,0
2018-11-04T02:27:33.709Z,0
2018-11-04T02:28:43.307Z,0
2018-11-04T02:29:52.913Z,0
2018-11-04T02:31:02.529Z,0
2018-11-04T02:32:12.165Z,0
2018-11-04T02:33:21.496Z,0
2018-11-04T02:34:31.396Z,0
2018-11-04T02:35:41.286Z,0
2018-11-04T02:36:51.177Z,0
2018-11-04T02:38:01.338Z,0
2018-11-04T02:39:10.405Z,0
2018-11-04T02:40:20.302Z,0
2018-11-04T02:41:29.907Z,0
2018-11-04T02:42:39.525Z,0
2018-11-04T02:43:49.456Z,0
2018-11-04T02:44:58.790Z,0
2018-11-04T02:46:08.690Z,0
2018-11-04T02:47:18.585Z,0
2018-11-04T02:48:28.737Z,0
2018-11-04T02:49:38.354Z,0
2018-11-04T02:50:48.262Z,0
2018-11-04T02:51:58.421Z,0
2018-11-04T02:53:07.751Z,0
2018-11-04T02:54:17.915Z,0
2018-11-04T02:55:27.819Z,0
2018-11-04T02:56:37.979Z,0
2018-11-04T02:57:48.134Z,0
2018-11-04T02:58:58.295Z,0
2018-11-04T03:00:08.179Z,0
2018-11-04T03:01:18.062Z,0
2018-11-04T03:02:27.946Z,0
2018-11-04T03:03:37.837Z,0
2018-11-04T03:04:47.455Z,0
2018-11-04T03:05:57.345Z,0
2018-11-04T03:07:07.240Z,0
2018-11-04T03:08:16.575Z,0
2018-11-04T03:09:26.488Z,0
2018-11-04T03:10:36.389Z,0
2018-11-04T03:11:46.282Z,0
2018-11-04T03:12:55.616Z,0
2018-11-04T03:14:05.498Z,0
2018-11-04T03:15:15.391Z,0
2018-11-04T03:16:25.286Z,0
2018-11-04T03:17:35.447Z,0
2018-11-04T03:18:45.112Z,0
2018-11-04T03:19:54.474Z,0
2018-11-04T03:21:04.378Z,0
2018-11-04T03:22:14.275Z,0
2018-11-04T03:23:24.160Z,0
2018-11-04T03:24:34.374Z,0
2018-11-04T03:25:44.546Z,0
2018-11-04T03:26:54.710Z,0
2018-11-04T03:28:04.606Z,0
2018-11-04T03:29:14.218Z,0
2018-11-04T03:30:24.375Z,0
2018-11-04T03:31:33.992Z,0
2018-11-04T03:32:44.189Z,0
2018-11-04T03:33:54.361Z,0
2018-11-04T03:35:04.537Z,0
2018-11-04T03:36:14.428Z,0
2018-11-04T03:37:24.040Z,0
2018-11-04T03:38:34.199Z,0
2018-11-04T03:39:44.077Z,0
2018-11-04T03:40:53.696Z,0
2018-11-04T03:42:03.307Z,0
2018-11-04T03:43:12.941Z,0
2018-11-04T03:44:22.833Z,0
2018-11-04T03:45:32.443Z,0
2018-11-04T03:46:42.051Z,0
2018-11-04T03:47:51.158Z,0
2018-11-04T03:49:01.046Z,0
2018-11-04T03:50:10.387Z,0
2018-11-04T03:51:20.274Z,0
2018-11-04T03:52:30.157Z,0
2018-11-04T03:53:40.051Z,0
2018-11-04T03:54:50.206Z,0
2018-11-04T03:55:59.815Z,0
2018-11-04T03:57:09.426Z,0
2018-11-04T03:58:19.043Z,0
2018-11-04T03:59:28.961Z,0
2018-11-04T04:00:38.573Z,0
2018-11-04T04:01:48.190Z,0
2018-11-04T04:02:57.806Z,0
2018-11-04T04:04:07.140Z,0
2018-11-04T04:05:17.024Z,0
2018-11-04T04:06:26.915Z,0
2018-11-04T04:07:37.062Z,0
2018-11-04T04:08:46.677Z,0
2018-11-04T04:09:56.562Z,0
2018-11-04T04:11:06.175Z,0
2018-11-04T04:12:16.073Z,0
2018-11-04T04:13:25.684Z,0
2018-11-04T04:14:35.306Z,0
2018-11-04T04:15:45.203Z,0
2018-11-04T04:16:55.091Z,0
2018-11-04T04:18:04.737Z,0
2018-11-04T04:19:14.623Z,0
2018-11-04T04:20:24.240Z,0
2018-11-04T04:21:33.841Z,0
2018-11-04T04:22:43.993Z,0
2018-11-04T04:23:53.884Z,0
2018-11-04T04:25:03.774Z,0
2018-11-04T04:26:13.940Z,0
2018-11-04T04:27:23.833Z,0
2018-11-04T04:28:33.772Z,0
2018-11-04T04:29:43.658Z,0
2018-11-04T04:30:53.263Z,0
2018-11-04T04:32:03.446Z,0
2018-11-04T04:33:13.056Z,0
2018-11-04T04:34:22.664Z,0
2018-11-04T04:35:32.850Z,0
2018-11-04T04:36:42.458Z,0
2018-11-04T04:37:52.664Z,0
2018-11-04T04:39:02.589Z,0
2018-11-04T04:40:12.209Z,0
2018-11-04T04:41:22.363Z,0
2018-11-04T04:42:32.248Z,0
2018-11-04T04:43:41.587Z,0
2018-11-04T04:44:51.208Z,0
2018-11-04T04:46:01.356Z,0
2018-11-04T04:47:11.236Z,0
2018-11-04T04:48:21.392Z,0
2018-11-04T04:49:31.003Z,0
2018-11-04T04:50:40.619Z,0
2018-11-04T04:51:50.227Z,0
2018-11-04T04:53:00.112Z,0
2018-11-04T04:54:10.338Z,0
2018-11-04T04:55:20.503Z,0
2018-11-04T04:56:30.661Z,0
2018-11-04T04:57:40.853Z,0
2018-11-04T04:58:50.741Z,0
2018-11-04T05:00:00.906Z,0
2018-11-04T05:01:10.788Z,0
2018-11-04T05:02:20.416Z,0
2018-11-04T05:03:30.588Z,0
2018-11-04T05:04:39.912Z,0
2018-11-04T05:05:49.804Z,0
2018-11-04T05:06:59.686Z,0
2018-11-04T05:08:09.296Z,0
2018-11-04T05:09:19.217Z,0
2018-11-04T05:10:29.383Z,0
2018-11-04T05:11:39.557Z,0
2018-11-04T05:12:48.899Z,0
2018-11-04T05:13:58.784Z,0
2018-11-04T05:15:08.742Z,0
2018-11-04T05:16:18.372Z,0
2018-11-04T05:17:28.541Z,0
2018-11-04T05:18:38.427Z,0
2018-11-04T05:19:48.312Z,0
2018-11-04T05:20:58.457Z,0
2018-11-04T05:22:08.360Z,0
2018-11-04T05:23:18.236Z,0
2018-11-04T05:24:27.573Z,0
2018-11-04T05:25:37.466Z,0
2018-11-04T05:26:47.363Z,0
2018-11-04T05:27:57.257Z,0
2018-11-04T05:29:07.420Z,0
2018-11-04T05:30:17.577Z,0
2018-11-04T05:31:27.736Z,0
2018-11-04T05:32:37.340Z,0
2018-11-04T05:33:46.665Z,0
2018-11-04T05:34:56.821Z,0
2018-11-04T05:36:06.990Z,0
2018-11-04T05:37:16.335Z,0
2018-11-04T05:38:26.995Z,0
2018-11-04T05:39:36.911Z,0
2018-11-04T05:40:46.792Z,0
2018-11-04T05:41:56.678Z,0
2018-11-04T05:43:06.557Z,0
2018-11-04T05:44:16.712Z,0
2018-11-04T05:45:26.595Z,0
2018-11-04T05:46:36.209Z,0
2018-11-04T05:47:46.093Z,0
2018-11-04T05:48:55.978Z,0
2018-11-04T05:50:05.868Z,0
2018-11-04T05:51:15.750Z,0
2018-11-04T05:52:25.630Z,0
2018-11-04T05:53:35.312Z,0
2018-11-04T05:54:45.189Z,0
2018-11-04T05:55:55.345Z,0
2018-11-04T05:57:05.514Z,0
2018-11-04T05:58:15.394Z,0
2018-11-04T05:59:25.558Z,0
2018-11-04T06:00:35.164Z,0
2018-11-04T06:01:44.773Z,0
2018-11-04T06:02:54.099Z,0
2018-11-04T06:04:03.437Z,0
2018-11-04T06:05:13.050Z,0
2018-11-04T06:06:22.390Z,0
2018-11-04T06:07:32.551Z,0
2018-11-04T06:08:42.442Z,0
2018-11-04T06:09:52.320Z,0
2018-11-04T06:11:01.659Z,0
2018-11-04T06:12:11.538Z,0
2018-11-04T06:13:21.148Z,0
2018-11-04T06:14:31.305Z,0
2018-11-04T06:15:41.187Z,0
2018-11-04T06:16:51.341Z,0
2018-11-04T06:18:01.495Z,0
2018-11-04T06:19:11.433Z,0
2018-11-04T06:20:21.054Z,5
2018-11-04T06:21:30.663Z,5
2018-11-04T06:22:40.820Z,5
2018-11-04T06:23:50.430Z,5
2018-11-04T06:25:00.308Z,5
2018-11-04T06:26:10.191Z,5
2018-11-04T06:27:20.088Z,5
2018-11-04T06:28:30.239Z,10
2018-11-04T06:29:39.858Z,10
2018-11-04T06:30:50.012Z,10
2018-11-04T06:31:59.635Z,10
2018-11-04T06:33:09.802Z,10
2018-11-04T06:34:19.953Z,10
2018-11-04T06:35:29.570Z,15
2018-11-04T06:36:39.450Z,15
2018-11-04T06:37:49.612Z,15
2018-11-04T06:38:58.954Z,15
2018-11-04T06:40:09.131Z,15
2018-11-04T06:41:19.208Z,20
2018-11-04T06:42:28.627Z,20
2018-11-04T06:43:38.542Z,20
2018-11-04T06:44:48.419Z,20
2018-11-04T06:45:58.310Z,25
2018-11-04T06:47:07.867Z,25
2018-11-04T06:48:17.830Z,25
2018-11-04T06:49:28.000Z,25
2018-11-04T06:50:37.884Z,25
2018-11-04T06:51:47.497Z,30
2018-11-04T06:52:57.377Z,30
2018-11-04T06:54:07.258Z,30
2018-11-04T06:55:16.589Z,30
2018-11-04T06:56:26.478Z,30
2018-11-04T06:57:36.628Z,35
2018-11-04T06:58:46.239Z,35
2018-11-04T06:59:56.703Z,35
2018-11-04T07:01:06.388Z,35
2018-11-04T07:02:16.288Z,40
2018-11-04T07:03:26.223Z,40
2018-11-04T07:04:35.288Z,40
2018-11-04T07:05:45.168Z,40
2018-11-04T07:06:55.318Z,45
2018-11-04T07:08:05.472Z,45
2018-11-04T07:09:15.439Z,45
2018-11-04T07:10:25.321Z,45
2018-11-04T07:11:35.213Z,45
2018-11-04T07:12:45.094Z,50
2018-11-04T07:13:54.977Z,50
2018-11-04T07:15:04.583Z,50
2018-11-04T07:16:14.195Z,50
2018-11-04T07:17:23.803Z,55
2018-11-04T07:18:33.957Z,55
2018-11-04T07:19:43.626Z,55
2018-11-04T07:20:53.463Z,55
2018-11-04T07:22:03.631Z,60
2018-11-04T07:23:13.847Z,60
2018-11-04T07:24:23.468Z,60
2018-11-04T07:25:33.583Z,65
2018-11-04T07:26:43.485Z,65
2018-11-04T07:27:53.093Z,65
2018-11-04T07:29:03.247Z,65
2018-11-04T07:30:13.190Z,70
2018-11-04T07:31:22.806Z,70
2018-11-04T07:32:32.424Z,70
2018-11-04T07:33:42.035Z,70
2018-11-04T07:34:51.374Z,75
2018-11-04T07:36:01.256Z,75
2018-11-04T07:37:10.873Z,75
2018-11-04T07:38:20.471Z,80
2018-11-04T07:39:30.079Z,80
2018-11-04T07:40:39.691Z,80
2018-11-04T07:41:49.078Z,80
2018-11-04T07:42:59.233Z,85
2018-11-04T07:44:09.636Z,85
2018-11-04T07:45:19.527Z,85
2018-11-04T07:46:29.409Z,85
2018-11-04T07:47:39.073Z,90
2018-11-04T07:48:48.686Z,90
2018-11-04T07:49:58.569Z,90
2018-11-04T07:51:08.186Z,95
2018-11-04T07:52:18.343Z,95
2018-11-04T07:53:28.221Z,95
2018-11-04T07:54:38.169Z,100
2018-11-04T07:55:47.795Z,100
2018-11-04T07:56:57.915Z,100
2018-11-04T07:58:08.105Z,105
2018-11-04T07:59:18.283Z,110
2018-11-04T08:00:28.448Z,115
2018-11-04T08:01:38.057Z,120
2018-11-04T08:02:48.247Z,125
2018-11-04T08:03:58.238Z,125
2018-11-04T08:05:07.636Z,130
2018-11-04T08:06:17.517Z,130
2018-11-04T08:07:27.131Z,130
2018-11-04T08:08:36.740Z,130
2018-11-04T08:09:46.620Z,135
2018-11-04T08:10:56.503Z,130
2018-11-04T08:12:06.140Z,130
2018-11-04T08:13:16.022Z,130
2018-11-04T08:14:25.912Z,130
2018-11-04T08:15:35.523Z,130
2018-11-04T08:16:45.672Z,135
2018-11-04T08:17:55.825Z,140
2018-11-04T08:19:05.974Z,145
2018-11-04T08:20:15.876Z,145
2018-11-04T08:21:26.181Z,150
2018-11-04T08:22:35.820Z,150
2018-11-04T08:23:45.700Z,155
2018-11-04T08:24:55.312Z,155
2018-11-04T08:26:05.196Z,155
2018-11-04T08:27:14.537Z,155
2018-11-04T08:28:24.474Z,155
2018-11-04T08:29:34.646Z,160
2018-11-04T08:30:44.822Z,160
2018-11-04T08:31:54.155Z,160
2018-11-04T08:33:03.499Z,160
2018-11-04T08:34:13.663Z,160
2018-11-04T08:35:23.545Z,160
2018-11-04T08:36:33.699Z,160
2018-11-04T08:37:43.866Z,165
2018-11-04T08:38:53.751Z,165
2018-11-04T08:40:04.427Z,165
2018-11-04T08:41:13.918Z,165
2018-11-04T08:42:23.524Z,170
2018-11-04T08:43:33.151Z,170
2018-11-04T08:44:42.771Z,175
2018-11-04T08:45:52.962Z,175
2018-11-04T08:47:03.031Z,180
2018-11-04T08:48:13.189Z,180
2018-11-04T08:49:23.084Z,185
2018-11-04T08:50:32.424Z,190
2018-11-04T08:51:42.358Z,200
2018-11-04T08:52:52.439Z,200
2018-11-04T08:54:02.327Z,200
2018-11-04T08:55:11.962Z,195
2018-11-04T08:56:21.852Z,200
2018-11-04T08:57:31.747Z,200
2018-11-04T08:58:41.807Z,200
2018-11-04T08:59:51.481Z,200
2018-11-04T09:01:01.377Z,200
2018-11-04T09:02:11.267Z,205
2018-11-04T09:03:20.612Z,210
2018-11-04T09:04:30.516Z,210
2018-11-04T09:05:39.852Z,210
2018-11-04T09:06:49.832Z,210
2018-11-04T09:08:00.000Z,210
2018-11-04T09:09:09.670Z,210
2018-11-04T09:10:19.557Z,205
2018-11-04T09:11:29.444Z,205
2018-11-04T09:12:39.052Z,205
2018-11-04T09:13:48.941Z,205
2018-11-04T09:14:58.558Z,205
2018-11-04T09:16:07.900Z,205
2018-11-04T09:17:17.801Z,210
2018-11-04T09:18:27.964Z,210
2018-11-04T09:19:37.844Z,210
2018-11-04T09:20:47.731Z,205
2018-11-04T09:21:57.833Z,205
2018-11-04T09:23:07.034Z,205
2018-11-04T09:24:17.195Z,210
2018-11-04T09:25:27.365Z,215
2018-11-04T09:26:37.024Z,210
2018-11-04T09:27:46.652Z,210
2018-11-04T09:28:56.903Z,210
2018-11-04T09:30:05.914Z,210
2018-11-04T09:31:15.269Z,215
2018-11-04T09:32:24.611Z,220
2018-11-04T09:33:34.227Z,225
2018-11-04T09:34:44.129Z,225
2018-11-04T09:35:55.582Z,225
2018-11-04T09:37:04.637Z,230
2018-11-04T09:38:14.544Z,230
2018-11-04T09:39:24.450Z,230
2018-11-04T09:40:34.070Z,225
2018-11-04T09:41:43.418Z,220
2018-11-04T09:42:52.767Z,220
2018-11-04T09:44:02.120Z,220
2018-11-04T09:45:11.765Z,220
2018-11-04T09:46:21.389Z,220
2018-11-04T09:47:30.520Z,225
2018-11-04T09:48:39.868Z,225
2018-11-04T09:49:49.897Z,225
2018-11-04T09:50:59.464Z,225
2018-11-04T09:52:08.263Z,225
2018-11-04T09:53:18.155Z,225
2018-11-04T09:54:27.220Z,230
2018-11-04T09:55:37.393Z,230
2018-11-04T09:56:46.823Z,230
2018-11-04T09:57:56.738Z,230
2018-11-04T09:59:06.632Z,230
2018-11-04T10:00:16.798Z,235
2018-11-04T10:01:26.422Z,235
2018-11-04T10:02:36.585Z,240
2018-11-04T10:03:45.941Z,245
2018-11-04T10:04:55.297Z,245
2018-11-04T10:06:05.191Z,250
2018-11-04T10:07:14.867Z,245
2018-11-04T10:08:24.395Z,245
2018-11-04T10:09:33.739Z,245
2018-11-04T10:10:43.085Z,245
2018-11-04T10:11:53.258Z,245
2018-11-04T10:13:02.926Z,240
2018-11-04T10:14:12.814Z,240
2018-11-04T10:15:22.753Z,240
2018-11-04T10:16:32.910Z,245
2018-11-04T10:17:43.081Z,250
2018-11-04T10:18:54.038Z,240
2018-11-04T10:20:06.540Z,240
2018-11-04T10:21:18.913Z,240
2018-11-04T10:22:28.801Z,240
2018-11-04T10:23:38.412Z,240
2018-11-04T10:24:48.027Z,245
2018-11-04T10:25:57.650Z,250
2018-11-04T10:27:07.929Z,255
2018-11-04T10:28:17.272Z,255
2018-11-04T10:29:27.164Z,260
2018-11-04T10:30:37.560Z,265
2018-11-04T10:31:47.178Z,270
2018-11-04T10:32:57.346Z,275
2018-11-04T10:34:07.232Z,275
2018-11-04T10:35:17.392Z,275
2018-11-04T10:36:27.840Z,280
2018-11-04T10:37:37.739Z,285
2018-11-04T10:38:47.889Z,295
2018-11-04T10:39:57.779Z,285
2018-11-04T10:41:07.395Z,285
2018-11-04T10:42:17.635Z,275
2018-11-04T10:43:27.812Z,270
2018-11-04T10:44:37.752Z,265
2018-11-04T10:45:47.091Z,265
2018-11-04T10:46:56.711Z,270
2018-11-04T10:48:06.325Z,275
2018-11-04T10:49:15.754Z,285
2018-11-04T10:50:25.604Z,290
2018-11-04T10:51:35.495Z,290
2018-11-04T10:52:45.398Z,280
2018-11-04T10:53:55.558Z,280
2018-11-04T10:55:05.444Z,275
2018-11-04T10:56:14.797Z,270
2018-11-04T10:57:24.416Z,265
2018-11-04T10:58:34.581Z,265
2018-11-04T10:59:44.483Z,265
2018-11-04T11:00:54.660Z,265
2018-11-04T11:02:04.274Z,270
2018-11-04T11:03:14.175Z,270
2018-11-04T11:04:23.558Z,270
2018-11-04T11:05:33.459Z,260
2018-11-04T11:06:43.622Z,255
2018-11-04T11:07:52.968Z,260
2018-11-04T11:09:02.323Z,260
2018-11-04T11:10:11.953Z,260
2018-11-04T11:11:21.637Z,260
2018-11-04T11:12:31.255Z,265
2018-11-04T11:13:40.871Z,260
2018-11-04T11:14:50.795Z,250
2018-11-04T11:16:00.407Z,250
2018-11-04T11:17:10.573Z,260
2018-11-04T11:18:20.192Z,265
2018-11-04T11:19:30.357Z,270
2018-11-04T11:20:40.538Z,255
2018-11-04T11:21:50.711Z,250
2018-11-04T11:23:02.391Z,245
2018-11-04T11:24:12.346Z,250
2018-11-04T11:25:22.254Z,255
2018-11-04T11:26:32.155Z,250
2018-11-04T11:27:41.774Z,245
2018-11-04T11:28:51.722Z,255
2018-11-04T11:30:02.144Z,250
2018-11-04T11:31:11.432Z,245
2018-11-04T11:32:21.596Z,240
2018-11-04T11:33:31.494Z,240
2018-11-04T11:34:40.584Z,240
2018-11-04T11:35:50.495Z,245
2018-11-04T11:37:00.440Z,240
2018-11-04T11:38:10.550Z,240
2018-11-04T11:39:20.174Z,245
2018-11-04T11:40:29.796Z,255
2018-11-04T11:41:39.972Z,260
2018-11-04T11:42:49.861Z,265
2018-11-04T11:44:00.024Z,275
2018-11-04T11:45:10.178Z,300
2018-11-04T11:46:19.871Z,300
2018-11-04T11:47:29.767Z,295
2018-11-04T11:48:39.965Z,285
2018-11-04T11:49:49.854Z,280
2018-11-04T11:51:00.029Z,275
2018-11-04T11:52:09.371Z,280
2018-11-04T11:53:18.989Z,295
2018-11-04T11:54:28.595Z,310
2018-11-04T11:55:38.214Z,305
2018-11-04T11:56:48.388Z,305
2018-11-04T11:57:58.285Z,305
2018-11-04T11:59:07.714Z,305
2018-11-04T12:00:17.375Z,300
2018-11-04T12:01:26.726Z,295
2018-11-04T12:02:36.351Z,285
2018-11-04T12:03:46.240Z,285
2018-11-04T12:04:56.154Z,270
2018-11-04T12:06:06.102Z,270
2018-11-04T12:07:15.778Z,290
2018-11-04T12:08:25.718Z,290
2018-11-04T12:09:35.610Z,295
2018-11-04T12:10:45.499Z,300
2018-11-04T12:11:55.121Z,300
2018-11-04T12:13:05.015Z,285
2018-11-04T12:14:14.627Z,285
2018-11-04T12:15:24.513Z,280
2018-11-04T12:16:33.854Z,285
2018-11-04T12:17:44.051Z,275
2018-11-04T12:18:53.953Z,285
2018-11-04T12:20:03.301Z,275
2018-11-04T12:21:13.469Z,275
2018-11-04T12:22:23.356Z,270
2018-11-04T12:23:33.680Z,260
2018-11-04T12:24:43.871Z,245
2018-11-04T12:25:54.035Z,245
2018-11-04T12:27:03.370Z,240
2018-11-04T12:28:13.259Z,245
2018-11-04T12:29:22.880Z,245
2018-11-04T12:30:32.775Z,245
2018-11-04T12:31:42.663Z,245
2018-11-04T12:32:52.553Z,240
2018-11-04T12:34:02.444Z,245
2018-11-04T12:35:11.671Z,245
2018-11-04T12:36:21.313Z,250
2018-11-04T12:37:31.205Z,255
2018-11-04T12:38:41.114Z,245
2018-11-04T12:39:51.280Z,245
2018-11-04T12:41:01.183Z,235
2018-11-04T12:42:11.347Z,230
2018-11-04T12:43:20.964Z,240
2018-11-04T12:44:30.596Z,245
2018-11-04T12:45:40.839Z,245
2018-11-04T12:46:50.704Z,240
2018-11-04T12:48:00.599Z,235
2018-11-04T12:49:10.503Z,220
2018-11-04T12:50:20.401Z,215
2018-11-04T12:51:29.747Z,215
2018-11-04T12:52:39.364Z,215
2018-11-04T12:53:48.715Z,215
2018-11-04T12:54:58.611Z,210
2018-11-04T12:56:08.557Z,205
2018-11-04T12:57:18.454Z,200
2018-11-04T12:58:28.079Z,195
2018-11-04T12:59:37.710Z,190
2018-11-04T13:00:47.904Z,185
2018-11-04T13:01:58.032Z,185
2018-11-04T13:03:07.995Z,185
2018-11-04T13:04:17.904Z,185
2018-11-04T13:05:28.080Z,195
2018-11-04T13:06:38.241Z,200
2018-11-04T13:07:48.151Z,195
2018-11-04T13:08:58.051Z,195
2018-11-04T13:10:08.211Z,190
2018-11-04T13:11:17.687Z,195
2018-11-04T13:12:27.860Z,195
2018-11-04T13:13:37.755Z,195
2018-11-04T13:14:47.645Z,200
2018-11-04T13:15:56.988Z,210
2018-11-04T13:17:06.875Z,205
2018-11-04T13:18:17.039Z,215
2018-11-04T13:19:26.659Z,220
2018-11-04T13:20:36.834Z,215
2018-11-04T13:21:46.457Z,210
2018-11-04T13:22:56.083Z,210
2018-11-04T13:24:05.431Z,220
2018-11-04T13:25:15.601Z,225
2018-11-04T13:26:25.230Z,240
2018-11-04T13:27:35.406Z,240
2018-11-04T13:28:45.049Z,225
2018-11-04T13:29:54.662Z,215
2018-11-04T13:31:03.743Z,205
2018-11-04T13:32:13.937Z,195
2018-11-04T13:33:23.552Z,185
2018-11-04T13:34:33.450Z,180
2018-11-04T13:35:43.610Z,175
2018-11-04T13:36:53.512Z,175
2018-11-04T13:38:02.863Z,170
2018-11-04T13:39:12.485Z,170
2018-11-04T13:40:21.826Z,160
2018-11-04T13:41:31.449Z,155
2018-11-04T13:42:41.347Z,150
2018-11-04T13:43:51.524Z,150
2018-11-04T13:45:00.874Z,145
2018-11-04T13:46:11.048Z,140
2018-11-04T13:47:20.944Z,135
2018-11-04T13:48:30.830Z,130
2018-11-04T13:49:41.060Z,130
2018-11-04T13:50:50.954Z,130
2018-11-04T13:52:01.132Z,125
2018-11-04T13:53:10.488Z,125
2018-11-04T13:54:19.830Z,120
2018-11-04T13:55:29.449Z,120
2018-11-04T13:56:38.239Z,120
2018-11-04T13:57:48.407Z,120
2018-11-04T13:58:58.290Z,120
2018-11-04T14:00:08.186Z,115
2018-11-04T14:01:18.081Z,115
2018-11-04T14:02:28.247Z,110
2018-11-04T14:03:37.860Z,110
2018-11-04T14:04:47.476Z,110
2018-11-04T14:05:57.092Z,105
2018-11-04T14:07:06.726Z,105
2018-11-04T14:08:16.614Z,105
2018-11-04T14:09:25.406Z,105
2018-11-04T14:10:35.297Z,100
2018-11-04T14:11:44.923Z,105
2018-11-04T14:12:55.346Z,105
2018-11-04T14:14:04.624Z,105
2018-11-04T14:15:13.972Z,105
2018-11-04T14:16:23.864Z,105
2018-11-04T14:17:34.034Z,105
2018-11-04T14:18:43.931Z,105
2018-11-04T14:19:53.281Z,105
2018-11-04T14:21:02.894Z,105
2018-11-04T14:22:12.519Z,105
2018-11-04T14:23:22.138Z,100
2018-11-04T14:24:31.486Z,95
2018-11-04T14:25:41.103Z,95
2018-11-04T14:26:51.282Z,95
2018-11-04T14:28:01.447Z,90
2018-11-04T14:29:11.073Z,90
2018-11-04T14:30:21.257Z,90
2018-11-04T14:31:31.165Z,90
2018-11-04T14:32:41.352Z,90
2018-11-04T14:33:50.701Z,90
2018-11-04T14:35:00.585Z,85
2018-11-04T14:36:10.483Z,80
2018-11-04T14:37:20.656Z,80
2018-11-04T14:38:30.276Z,80
2018-11-04T14:39:40.176Z,75
2018-11-04T14:40:49.243Z,70
2018-11-04T14:41:59.141Z,70
2018-11-04T14:43:08.759Z,70
2018-11-04T14:44:18.648Z,75
2018-11-04T14:45:28.365Z,70
2018-11-04T14:46:38.531Z,70
2018-11-04T14:47:48.421Z,65
2018-11-04T14:48:57.504Z,65
2018-11-04T14:50:06.844Z,60
2018-11-04T14:51:16.464Z,60
2018-11-04T14:52:26.400Z,65
2018-11-04T14:53:36.024Z,60
2018-11-04T14:54:45.370Z,60
2018-11-04T14:55:54.727Z,55
2018-11-04T14:57:04.633Z,55
2018-11-04T14:58:14.396Z,55
2018-11-04T14:59:24.087Z,50
2018-11-04T15:00:34.257Z,55
2018-11-04T15:01:44.908Z,50
2018-11-04T15:02:54.833Z,50
2018-11-04T15:04:04.771Z,50
2018-11-04T15:05:14.664Z,50
2018-11-04T15:06:24.277Z,50
2018-11-04T15:07:34.642Z,50
2018-11-04T15:08:44.351Z,50
2018-11-04T15:09:54.238Z,50
2018-11-04T15:11:04.377Z,45
2018-11-04T15:12:13.724Z,45
2018-11-04T15:13:23.617Z,45
2018-11-04T15:14:33.515Z,40
2018-11-04T15:15:43.684Z,40
2018-11-04T15:16:53.331Z,35
2018-11-04T15:18:02.722Z,35
2018-11-04T15:19:13.503Z,35
2018-11-04T15:20:23.567Z,30
2018-11-04T15:21:33.179Z,30
2018-11-04T15:22:42.525Z,30
2018-11-04T15:23:52.426Z,25
2018-11-04T15:25:02.452Z,25
2018-11-04T15:26:11.807Z,25
2018-11-04T15:27:21.699Z,20
2018-11-04T15:28:31.329Z,20
2018-11-04T15:29:40.674Z,20
2018-11-04T15:30:50.296Z,20
2018-11-04T15:32:00.477Z,15
2018-11-04T15:33:09.832Z,15
2018-11-04T15:34:21.202Z,15
2018-11-04T15:35:30.752Z,15
2018-11-04T15:36:40.541Z,15
2018-11-04T15:37:50.790Z,10
2018-11-04T15:39:01.006Z,10
2018-11-04T15:40:10.777Z,10
2018-11-04T15:41:21.091Z,10
2018-11-04T15:42:31.338Z,10
2018-11-04T15:43:41.016Z,10
2018-11-04T15:44:50.973Z,5
2018-11-04T15:46:00.706Z,5
2018-11-04T15:47:10.166Z,5
2018-11-04T15:48:20.121Z,5
2018-11-04T15:49:29.749Z,5
2018-11-04T15:50:39.415Z,5
2018-11-04T15:51:49.038Z,5
2018-11-04T15:52:58.930Z,0
2018-11-04T15:54:08.547Z,0
2018-11-04T15:55:18.455Z,0
2018-11-04T15:56:28.375Z,0
2018-11-04T15:57:37.991Z,0
2018-11-04T15:58:48.156Z,0
2018-11-04T15:59:57.233Z,0
2018-11-04T16:01:06.571Z,0
2018-11-04T16:02:17.384Z,0
2018-11-04T16:03:26.738Z,0
2018-11-04T16:04:47.424Z,0
2018-11-04T16:05:57.502Z,0
2018-11-04T16:07:06.912Z,0
2018-11-04T16:08:17.001Z,0
2018-11-04T16:09:26.868Z,0
2018-11-04T16:10:36.715Z,0
2018-11-04T16:11:46.939Z,0
2018-11-04T16:12:57.601Z,0
2018-11-04T16:14:07.077Z,0
2018-11-04T16:15:17.968Z,0
2018-11-04T16:16:27.776Z,0
2018-11-04T16:17:37.478Z,0
2018-11-04T16:18:50.000Z,0
2018-11-04T16:19:59.598Z,0
2018-11-04T16:21:08.949Z,0
2018-11-04T16:22:19.249Z,0
2018-11-04T16:23:29.240Z,0
2018-11-04T16:24:38.591Z,0
2018-11-04T16:25:48.503Z,0
2018-11-04T16:26:57.855Z,0
2018-11-04T16:28:07.223Z,0
2018-11-04T16:29:17.325Z,0
2018-11-04T16:30:27.098Z,0
2018-11-04T16:31:36.716Z,0
2018-11-04T16:32:46.906Z,0
2018-11-04T16:33:56.308Z,0
2018-11-04T16:35:06.484Z,0
2018-11-04T16:36:16.129Z,0
2018-11-04T16:37:26.025Z,0
2018-11-04T16:38:35.913Z,0